Milas, Turkey
Current Conditions -  °F | °C
As of 4:50 AM on Sunday 23 Nov 2014 (Local Time) from LTFE Reporting Station
Clear Clear  
Wind Chill: 44°   Ceiling: Unl
Heat Index: 46°   Visibility: 6mi
Dew Point: 37°   Wind: 5mph
Humidity: 71%   Direction: 150°SSE
Pressure: 30.09"   Gusts: NA
Location:  37.32°N, 27.77°E
Report Text: LTFE 230150Z 15004KT 120V180 CAVOK 08/03 Q1019 NOSIG
Loading
Personal Weather Stations






























Interactive Weather Map New forecast layout! Learn more

10-Day Weather Forecast

Advertisements
Track Severe Weather on mobile